Terminal Aerodrome Forecast
Issued by NWS Tiyan, Guam

Current Version | Previous Version | Text Only | Print | Product List | Glossary On
Versions: 1 2 3 4 5 6 7 8 9 10 11 12 13 14 15 16 17 18 19 20 21 22 23 24 25
000
FTPQ31 PGUM 212300
TAFPQ
TAF
PGUM 212322Z 2200/2306 08012G19KT P6SM VCSH FEW016 SCT040 SCT120
     FM220900 07011KT P6SM VCSH FEW018 SCT050 SCT120
     FM222300 07012G20KT P6SM VCSH FEW016 SCT040 SCT120=

USA.gov is the U.S. government's official web portal to all federal, state and local government web resources and services.